createdAt,value
2023-05-14T00:00:56.743Z,78.07
2023-05-14T00:03:28.325Z,80.92
2023-05-14T00:05:59.969Z,81.80
2023-05-14T00:08:31.628Z,79.16
2023-05-14T00:11:03.251Z,78.06
2023-05-14T00:13:35.649Z,80.14
2023-05-14T00:16:07.313Z,78.99
2023-05-14T00:18:39.056Z,77.92
2023-05-14T00:21:10.719Z,76.38
2023-05-14T00:23:42.445Z,76.13
2023-05-14T00:26:14.054Z,76.70
2023-05-14T00:28:48.916Z,77.62
2023-05-14T00:31:20.560Z,77.50
2023-05-14T00:33:52.264Z,75.49
2023-05-14T00:36:23.925Z,76.88
2023-05-14T00:38:55.547Z,79.39
2023-05-14T00:41:27.180Z,78.64
2023-05-14T00:43:59.032Z,75.80
2023-05-14T00:46:31.483Z,75.59
2023-05-14T00:49:03.674Z,76.09
2023-05-14T00:51:35.486Z,76.65
2023-05-14T00:54:08.164Z,77.32
2023-05-14T00:56:39.828Z,77.84
2023-05-14T00:59:12.105Z,78.92
2023-05-14T01:01:45.348Z,79.57
2023-05-14T01:04:17.952Z,81.34
2023-05-14T01:06:58.428Z,79.37
2023-05-14T01:09:36.606Z,80.90
2023-05-14T01:12:19.654Z,80.17
2023-05-14T01:15:09.268Z,82.42
2023-05-14T01:17:48.508Z,80.93
2023-05-14T01:20:21.159Z,81.61
2023-05-14T01:22:52.927Z,83.10
2023-05-14T01:25:26.115Z,82.86
2023-05-14T01:28:16.569Z,80.03
2023-05-14T01:31:03.109Z,80.23
2023-05-14T01:33:37.405Z,79.82
2023-05-14T01:36:10.305Z,79.06
2023-05-14T01:38:43.392Z,82.58
2023-05-14T01:41:18.117Z,82.03
2023-05-14T01:43:50.117Z,79.28
2023-05-14T01:46:21.709Z,77.04
2023-05-14T01:48:53.263Z,80.04
2023-05-14T01:51:25.027Z,81.84
2023-05-14T01:53:56.659Z,83.51
2023-05-14T01:56:28.306Z,83.53
2023-05-14T01:58:59.896Z,82.73
2023-05-14T02:01:31.586Z,82.60
2023-05-14T02:04:03.349Z,79.52
2023-05-14T02:06:34.976Z,80.20
2023-05-14T02:09:06.576Z,78.45
2023-05-14T02:11:38.493Z,79.49
2023-05-14T02:14:10.130Z,80.58
2023-05-14T02:16:41.886Z,80.37
2023-05-14T02:19:14.073Z,78.91
2023-05-14T02:21:45.884Z,78.06
2023-05-14T02:24:17.467Z,76.43
2023-05-14T02:26:49.096Z,78.99
2023-05-14T02:29:20.657Z,80.76
2023-05-14T02:31:52.488Z,78.57
2023-05-14T02:34:24.857Z,78.52
2023-05-14T02:36:56.502Z,78.75
2023-05-14T02:39:28.396Z,77.15
2023-05-14T02:41:59.992Z,76.65
2023-05-14T02:44:31.559Z,78.45
2023-05-14T02:47:03.258Z,79.23
2023-05-14T02:49:35.139Z,78.19
2023-05-14T02:52:06.996Z,76.68
2023-05-14T02:54:38.709Z,75.55
2023-05-14T02:57:10.294Z,76.21
2023-05-14T02:59:41.918Z,76.43
2023-05-14T03:02:13.981Z,76.18
2023-05-14T03:04:45.770Z,74.66
2023-05-14T03:07:17.421Z,74.60
2023-05-14T03:09:49.027Z,75.73
2023-05-14T03:12:20.670Z,76.39
2023-05-14T03:14:52.494Z,77.60
2023-05-14T03:17:24.204Z,76.62
2023-05-14T03:19:55.825Z,75.70
2023-05-14T03:22:27.875Z,74.24
2023-05-14T03:24:59.519Z,73.58
2023-05-14T03:27:31.236Z,75.33
2023-05-14T03:30:03.051Z,78.68
2023-05-14T03:32:34.979Z,78.15
2023-05-14T03:35:07.283Z,76.70
2023-05-14T03:37:38.889Z,76.16
2023-05-14T03:40:10.906Z,75.17
2023-05-14T03:42:42.571Z,76.54
2023-05-14T03:45:15.378Z,76.42
2023-05-14T03:47:47.007Z,76.67
2023-05-14T03:50:18.989Z,77.45
2023-05-14T03:52:50.794Z,77.47
2023-05-14T03:55:22.526Z,74.53
2023-05-14T03:57:54.192Z,73.25
2023-05-14T04:00:26.454Z,75.78
2023-05-14T04:02:58.300Z,72.75
2023-05-14T04:05:29.904Z,74.85
2023-05-14T04:08:02.365Z,75.24
2023-05-14T04:10:34.121Z,77.92
2023-05-14T04:13:05.987Z,76.82
2023-05-14T04:15:40.328Z,77.38
2023-05-14T04:18:12.650Z,76.32
2023-05-14T04:20:44.285Z,75.12
2023-05-14T04:23:16.104Z,76.21
2023-05-14T04:25:47.710Z,76.71
2023-05-14T04:28:19.290Z,77.42
2023-05-14T04:30:50.891Z,75.09
2023-05-14T04:33:22.735Z,75.68
2023-05-14T04:35:54.286Z,76.17
2023-05-14T04:38:25.927Z,75.15
2023-05-14T04:40:58.339Z,75.72
2023-05-14T04:43:29.946Z,76.48
2023-05-14T04:46:01.651Z,76.30
2023-05-14T04:48:33.337Z,75.44
2023-05-14T04:51:06.929Z,76.82
2023-05-14T04:53:38.858Z,76.86
2023-05-14T04:56:10.442Z,76.91
2023-05-14T04:58:42.230Z,75.16
2023-05-14T05:01:13.924Z,75.07
2023-05-14T05:03:46.698Z,76.29
2023-05-14T05:06:19.054Z,76.17
2023-05-14T05:08:50.603Z,76.68
2023-05-14T05:11:22.159Z,77.20
2023-05-14T05:13:53.847Z,77.20
2023-05-14T05:16:25.604Z,76.58
2023-05-14T05:18:57.312Z,77.54
2023-05-14T05:21:28.994Z,76.32
2023-05-14T05:24:00.653Z,75.92
2023-05-14T05:26:32.231Z,74.52
2023-05-14T05:29:04.964Z,75.38
2023-05-14T05:31:36.699Z,74.62
2023-05-14T05:34:08.361Z,76.21
2023-05-14T05:36:39.919Z,75.80
2023-05-14T05:39:11.578Z,76.82
2023-05-14T05:41:43.248Z,75.58
2023-05-14T05:44:14.930Z,75.71
2023-05-14T05:46:46.571Z,75.74
2023-05-14T05:49:18.419Z,75.61
2023-05-14T05:51:50.165Z,76.13
2023-05-14T05:54:23.255Z,74.67
2023-05-14T05:56:54.870Z,72.72
2023-05-14T05:59:26.774Z,72.74
2023-05-14T06:01:58.599Z,74.14
2023-05-14T06:04:30.186Z,75.11
2023-05-14T06:07:01.836Z,74.34
2023-05-14T06:09:33.453Z,73.95
2023-05-14T06:12:05.624Z,74.67
2023-05-14T06:14:37.326Z,72.77
2023-05-14T06:17:08.977Z,74.67
2023-05-14T06:19:40.588Z,74.26
2023-05-14T06:22:12.221Z,75.03
2023-05-14T06:24:43.903Z,75.98
2023-05-14T06:27:15.500Z,73.97
2023-05-14T06:29:47.121Z,74.49
2023-05-14T06:32:18.776Z,75.64
2023-05-14T06:34:50.379Z,74.95
2023-05-14T06:37:22.005Z,73.97
2023-05-14T06:39:54.687Z,74.65
2023-05-14T06:42:27.356Z,75.18
2023-05-14T06:44:59.351Z,74.37
2023-05-14T06:47:30.890Z,74.78
2023-05-14T06:50:02.523Z,74.14
2023-05-14T06:52:34.174Z,72.32
2023-05-14T06:55:06.176Z,73.12
2023-05-14T06:57:39.864Z,74.30
2023-05-14T07:00:12.715Z,73.09
2023-05-14T07:02:44.464Z,72.36
2023-05-14T07:05:16.096Z,73.88
2023-05-14T07:07:47.648Z,70.90
2023-05-14T07:10:19.217Z,71.12
2023-05-14T07:12:50.804Z,72.74
2023-05-14T07:15:22.435Z,73.70
2023-05-14T07:17:54.023Z,71.98
2023-05-14T07:20:25.831Z,70.64
